Green Bank, New Jersey
Current Conditions -  °F | °C
As of 6:54 PM on Sunday 25 Jan 2015 (Local Time) from KACY Reporting Station
Overcast Overcast  
Wind Chill: 38°   Ceiling: 5500
Heat Index: 41°   Visibility: 10mi
Dew Point: 31°   Wind: 5mph
Humidity: 67%   Direction: 30°NNE
Pressure: 29.89"   Gusts: NA
Location:  39.5436°N, 74.5919°W
Report Text: KACY 252354Z 03004KT 10SM FEW045 OVC055 05/M01 A2989 RMK AO2 SLP123 T00501006 10100 20050 53025
Loading
Personal Weather Stations






























Interactive Weather Map New forecast layout! Learn more

10-Day Weather Forecast

Advertisements
Track Severe Weather on mobile